sensor_id;sensor_type;location;lat;lon;timestamp;temperature;humidity
34099;DHT22;20374;49.474;10.944;2023-02-18T00:00:16;11.00;99.90
34099;DHT22;20374;49.474;10.944;2023-02-18T00:02:44;11.00;99.90
34099;DHT22;20374;49.474;10.944;2023-02-18T00:05:11;11.00;99.90
34099;DHT22;20374;49.474;10.944;2023-02-18T00:07:38;10.90;99.90
34099;DHT22;20374;49.474;10.944;2023-02-18T00:10:06;10.90;99.90
34099;DHT22;20374;49.474;10.944;2023-02-18T00:12:32;10.90;99.90
34099;DHT22;20374;49.474;10.944;2023-02-18T00:14:58;10.90;99.90
34099;DHT22;20374;49.474;10.944;2023-02-18T00:17:24;10.90;99.90
34099;DHT22;20374;49.474;10.944;2023-02-18T00:19:50;10.80;99.90
34099;DHT22;20374;49.474;10.944;2023-02-18T00:22:16;10.80;99.90
34099;DHT22;20374;49.474;10.944;2023-02-18T00:24:42;10.90;99.90
34099;DHT22;20374;49.474;10.944;2023-02-18T00:27:08;10.90;99.90
34099;DHT22;20374;49.474;10.944;2023-02-18T00:29:34;10.90;99.90
34099;DHT22;20374;49.474;10.944;2023-02-18T00:32:00;10.90;99.90
34099;DHT22;20374;49.474;10.944;2023-02-18T00:34:28;10.90;99.90
34099;DHT22;20374;49.474;10.944;2023-02-18T00:36:54;10.80;99.90
34099;DHT22;20374;49.474;10.944;2023-02-18T00:39:20;10.90;99.90
34099;DHT22;20374;49.474;10.944;2023-02-18T00:41:46;10.90;99.90
34099;DHT22;20374;49.474;10.944;2023-02-18T00:44:14;11.00;99.90
34099;DHT22;20374;49.474;10.944;2023-02-18T00:46:40;11.00;99.90
34099;DHT22;20374;49.474;10.944;2023-02-18T00:49:06;11.00;99.90
34099;DHT22;20374;49.474;10.944;2023-02-18T00:51:34;11.00;99.90
34099;DHT22;20374;49.474;10.944;2023-02-18T00:54:01;11.00;99.90
34099;DHT22;20374;49.474;10.944;2023-02-18T00:56:27;11.00;99.90
34099;DHT22;20374;49.474;10.944;2023-02-18T00:58:53;11.00;99.90
34099;DHT22;20374;49.474;10.944;2023-02-18T01:01:19;11.00;99.90
34099;DHT22;20374;49.474;10.944;2023-02-18T01:03:46;11.00;99.90
34099;DHT22;20374;49.474;10.944;2023-02-18T01:06:13;10.90;99.90
34099;DHT22;20374;49.474;10.944;2023-02-18T01:08:40;10.90;99.90
34099;DHT22;20374;49.474;10.944;2023-02-18T01:11:07;10.90;99.90
34099;DHT22;20374;49.474;10.944;2023-02-18T01:13:34;10.80;99.90
34099;DHT22;20374;49.474;10.944;2023-02-18T01:16:00;10.80;99.90
34099;DHT22;20374;49.474;10.944;2023-02-18T01:18:29;10.70;99.90
34099;DHT22;20374;49.474;10.944;2023-02-18T01:20:55;10.60;99.90
34099;DHT22;20374;49.474;10.944;2023-02-18T01:23:21;10.70;99.90
34099;DHT22;20374;49.474;10.944;2023-02-18T01:25:47;10.50;99.90
34099;DHT22;20374;49.474;10.944;2023-02-18T01:28:14;10.40;99.90
34099;DHT22;20374;49.474;10.944;2023-02-18T01:30:40;10.40;99.90
34099;DHT22;20374;49.474;10.944;2023-02-18T01:33:07;10.40;99.90
34099;DHT22;20374;49.474;10.944;2023-02-18T01:35:33;10.30;99.90
34099;DHT22;20374;49.474;10.944;2023-02-18T01:38:01;10.20;99.90
34099;DHT22;20374;49.474;10.944;2023-02-18T01:40:29;10.20;99.90
34099;DHT22;20374;49.474;10.944;2023-02-18T01:42:55;10.20;99.90
34099;DHT22;20374;49.474;10.944;2023-02-18T01:48:19;10.10;99.90
34099;DHT22;20374;49.474;10.944;2023-02-18T01:50:53;10.10;99.90
34099;DHT22;20374;49.474;10.944;2023-02-18T01:53:34;10.10;99.90
34099;DHT22;20374;49.474;10.944;2023-02-18T01:56:02;10.10;99.90
34099;DHT22;20374;49.474;10.944;2023-02-18T01:58:29;10.10;99.90
34099;DHT22;20374;49.474;10.944;2023-02-18T02:00:55;10.10;99.90
34099;DHT22;20374;49.474;10.944;2023-02-18T02:03:21;10.10;99.90
34099;DHT22;20374;49.474;10.944;2023-02-18T02:05:47;10.10;99.90
34099;DHT22;20374;49.474;10.944;2023-02-18T02:08:15;10.10;99.90
34099;DHT22;20374;49.474;10.944;2023-02-18T02:13:39;10.20;99.90
34099;DHT22;20374;49.474;10.944;2023-02-18T02:16:37;10.20;99.90
34099;DHT22;20374;49.474;10.944;2023-02-18T02:22:39;10.20;99.90
34099;DHT22;20374;49.474;10.944;2023-02-18T02:34:21;10.20;99.90
34099;DHT22;20374;49.474;10.944;2023-02-18T02:42:07;10.10;99.90
34099;DHT22;20374;49.474;10.944;2023-02-18T02:47:26;10.20;99.90
34099;DHT22;20374;49.474;10.944;2023-02-18T02:52:31;10.40;99.90
34099;DHT22;20374;49.474;10.944;2023-02-18T02:54:57;10.40;99.90
34099;DHT22;20374;49.474;10.944;2023-02-18T03:00:13;10.50;99.90
34099;DHT22;20374;49.474;10.944;2023-02-18T03:16:33;10.60;99.90
34099;DHT22;20374;49.474;10.944;2023-02-18T03:22:16;10.60;99.90
34099;DHT22;20374;49.474;10.944;2023-02-18T03:27:23;10.60;99.90
34099;DHT22;20374;49.474;10.944;2023-02-18T03:30:22;10.60;99.90
34099;DHT22;20374;49.474;10.944;2023-02-18T03:32:46;10.70;99.90
34099;DHT22;20374;49.474;10.944;2023-02-18T03:35:18;10.70;99.90
34099;DHT22;20374;49.474;10.944;2023-02-18T03:37:52;10.70;99.90
34099;DHT22;20374;49.474;10.944;2023-02-18T03:40:21;10.80;99.90
34099;DHT22;20374;49.474;10.944;2023-02-18T03:42:47;10.70;99.90
34099;DHT22;20374;49.474;10.944;2023-02-18T03:45:12;10.80;99.90
34099;DHT22;20374;49.474;10.944;2023-02-18T03:47:40;10.70;99.90
34099;DHT22;20374;49.474;10.944;2023-02-18T03:50:07;10.70;99.90
34099;DHT22;20374;49.474;10.944;2023-02-18T03:52:33;10.80;99.90
34099;DHT22;20374;49.474;10.944;2023-02-18T03:55:03;10.80;99.90
34099;DHT22;20374;49.474;10.944;2023-02-18T03:57:29;10.80;99.90
34099;DHT22;20374;49.474;10.944;2023-02-18T03:59:55;10.80;99.90
34099;DHT22;20374;49.474;10.944;2023-02-18T04:02:21;10.80;99.90
34099;DHT22;20374;49.474;10.944;2023-02-18T04:04:47;10.70;99.90
34099;DHT22;20374;49.474;10.944;2023-02-18T04:07:13;10.70;99.90
34099;DHT22;20374;49.474;10.944;2023-02-18T04:09:39;10.70;99.90
34099;DHT22;20374;49.474;10.944;2023-02-18T04:12:05;10.70;99.90
34099;DHT22;20374;49.474;10.944;2023-02-18T04:14:31;10.70;99.90
34099;DHT22;20374;49.474;10.944;2023-02-18T04:16:57;10.60;99.90
34099;DHT22;20374;49.474;10.944;2023-02-18T04:19:23;10.60;99.90
34099;DHT22;20374;49.474;10.944;2023-02-18T04:21:49;10.60;99.90
34099;DHT22;20374;49.474;10.944;2023-02-18T04:24:14;10.60;99.90
34099;DHT22;20374;49.474;10.944;2023-02-18T04:26:40;10.60;99.90
34099;DHT22;20374;49.474;10.944;2023-02-18T04:29:06;10.60;99.90
34099;DHT22;20374;49.474;10.944;2023-02-18T04:31:32;10.60;99.90
34099;DHT22;20374;49.474;10.944;2023-02-18T04:33:58;10.60;99.90
34099;DHT22;20374;49.474;10.944;2023-02-18T04:36:24;10.60;99.90
34099;DHT22;20374;49.474;10.944;2023-02-18T04:38:50;10.60;99.90
34099;DHT22;20374;49.474;10.944;2023-02-18T04:41:16;10.70;99.90
34099;DHT22;20374;49.474;10.944;2023-02-18T04:43:41;10.60;99.90
34099;DHT22;20374;49.474;10.944;2023-02-18T04:46:07;10.60;99.90
34099;DHT22;20374;49.474;10.944;2023-02-18T04:48:33;10.70;99.90
34099;DHT22;20374;49.474;10.944;2023-02-18T04:51:00;10.70;99.90
34099;DHT22;20374;49.474;10.944;2023-02-18T04:53:25;10.70;99.90
34099;DHT22;20374;49.474;10.944;2023-02-18T04:55:52;10.70;99.90
34099;DHT22;20374;49.474;10.944;2023-02-18T04:58:19;10.70;99.90
34099;DHT22;20374;49.474;10.944;2023-02-18T05:00:46;10.70;99.90
34099;DHT22;20374;49.474;10.944;2023-02-18T05:03:12;10.70;99.90
34099;DHT22;20374;49.474;10.944;2023-02-18T05:05:38;10.70;99.90
34099;DHT22;20374;49.474;10.944;2023-02-18T05:08:07;10.70;99.90
34099;DHT22;20374;49.474;10.944;2023-02-18T05:10:33;10.70;99.90
34099;DHT22;20374;49.474;10.944;2023-02-18T05:12:59;10.70;99.90
34099;DHT22;20374;49.474;10.944;2023-02-18T05:15:25;10.60;99.90
34099;DHT22;20374;49.474;10.944;2023-02-18T05:17:51;10.50;99.90
34099;DHT22;20374;49.474;10.944;2023-02-18T05:20:17;10.40;99.90
34099;DHT22;20374;49.474;10.944;2023-02-18T05:22:43;10.30;99.90
34099;DHT22;20374;49.474;10.944;2023-02-18T05:25:09;10.30;99.90
34099;DHT22;20374;49.474;10.944;2023-02-18T05:27:35;10.30;99.90
34099;DHT22;20374;49.474;10.944;2023-02-18T05:30:01;10.20;99.90
34099;DHT22;20374;49.474;10.944;2023-02-18T05:32:26;10.20;99.90
34099;DHT22;20374;49.474;10.944;2023-02-18T05:34:52;10.20;99.90
34099;DHT22;20374;49.474;10.944;2023-02-18T05:37:18;10.20;99.90
34099;DHT22;20374;49.474;10.944;2023-02-18T05:39:44;10.10;99.90
34099;DHT22;20374;49.474;10.944;2023-02-18T05:42:10;10.10;99.90
34099;DHT22;20374;49.474;10.944;2023-02-18T05:44:36;10.10;99.90
34099;DHT22;20374;49.474;10.944;2023-02-18T05:47:05;10.10;99.90
34099;DHT22;20374;49.474;10.944;2023-02-18T05:49:32;10.10;99.90
34099;DHT22;20374;49.474;10.944;2023-02-18T05:51:58;10.10;99.90
34099;DHT22;20374;49.474;10.944;2023-02-18T05:54:25;10.10;99.90
34099;DHT22;20374;49.474;10.944;2023-02-18T05:56:52;10.20;99.90
34099;DHT22;20374;49.474;10.944;2023-02-18T05:59:18;10.20;99.90
34099;DHT22;20374;49.474;10.944;2023-02-18T06:01:44;10.20;99.90
34099;DHT22;20374;49.474;10.944;2023-02-18T06:04:11;10.20;99.90
34099;DHT22;20374;49.474;10.944;2023-02-18T06:06:37;10.30;99.90
34099;DHT22;20374;49.474;10.944;2023-02-18T06:09:04;10.30;99.90
34099;DHT22;20374;49.474;10.944;2023-02-18T06:11:30;10.30;99.90
34099;DHT22;20374;49.474;10.944;2023-02-18T06:13:56;10.30;99.90
34099;DHT22;20374;49.474;10.944;2023-02-18T06:16:22;10.40;99.90
34099;DHT22;20374;49.474;10.944;2023-02-18T06:18:48;10.40;99.90
34099;DHT22;20374;49.474;10.944;2023-02-18T06:21:14;10.40;99.90
34099;DHT22;20374;49.474;10.944;2023-02-18T06:23:40;10.50;99.90
34099;DHT22;20374;49.474;10.944;2023-02-18T06:26:06;10.50;99.90
34099;DHT22;20374;49.474;10.944;2023-02-18T06:28:32;10.60;99.90
34099;DHT22;20374;49.474;10.944;2023-02-18T06:30:58;10.60;99.90
34099;DHT22;20374;49.474;10.944;2023-02-18T06:33:24;10.60;99.90
34099;DHT22;20374;49.474;10.944;2023-02-18T06:36:10;10.60;99.90
34099;DHT22;20374;49.474;10.944;2023-02-18T06:38:38;10.60;99.90
34099;DHT22;20374;49.474;10.944;2023-02-18T06:41:04;10.60;99.90
34099;DHT22;20374;49.474;10.944;2023-02-18T06:43:31;10.60;99.90
34099;DHT22;20374;49.474;10.944;2023-02-18T06:45:57;10.70;99.90
34099;DHT22;20374;49.474;10.944;2023-02-18T06:48:23;10.70;99.90
34099;DHT22;20374;49.474;10.944;2023-02-18T06:50:49;10.70;99.90
34099;DHT22;20374;49.474;10.944;2023-02-18T06:53:15;10.70;99.90
34099;DHT22;20374;49.474;10.944;2023-02-18T06:55:44;10.70;99.90
34099;DHT22;20374;49.474;10.944;2023-02-18T06:58:10;10.80;99.90
34099;DHT22;20374;49.474;10.944;2023-02-18T07:00:37;10.80;99.90
34099;DHT22;20374;49.474;10.944;2023-02-18T07:03:03;10.80;99.90
34099;DHT22;20374;49.474;10.944;2023-02-18T07:05:30;10.80;99.90
34099;DHT22;20374;49.474;10.944;2023-02-18T07:07:55;10.80;99.90
34099;DHT22;20374;49.474;10.944;2023-02-18T07:10:21;10.70;99.90
34099;DHT22;20374;49.474;10.944;2023-02-18T07:12:47;10.80;99.90
34099;DHT22;20374;49.474;10.944;2023-02-18T07:15:14;10.70;99.90
34099;DHT22;20374;49.474;10.944;2023-02-18T07:17:40;10.70;99.90
34099;DHT22;20374;49.474;10.944;2023-02-18T07:20:07;10.70;99.90
34099;DHT22;20374;49.474;10.944;2023-02-18T07:22:33;10.70;99.90
34099;DHT22;20374;49.474;10.944;2023-02-18T07:25:01;10.80;99.90
34099;DHT22;20374;49.474;10.944;2023-02-18T07:27:27;10.80;99.90
34099;DHT22;20374;49.474;10.944;2023-02-18T07:29:53;10.80;99.90
34099;DHT22;20374;49.474;10.944;2023-02-18T07:32:19;10.80;99.90
34099;DHT22;20374;49.474;10.944;2023-02-18T07:34:45;10.80;99.90
34099;DHT22;20374;49.474;10.944;2023-02-18T07:37:11;10.80;99.90
34099;DHT22;20374;49.474;10.944;2023-02-18T07:39:41;10.80;99.90
34099;DHT22;20374;49.474;10.944;2023-02-18T07:42:08;10.90;99.90
34099;DHT22;20374;49.474;10.944;2023-02-18T07:44:35;10.90;99.90
34099;DHT22;20374;49.474;10.944;2023-02-18T07:47:01;10.90;99.90
34099;DHT22;20374;49.474;10.944;2023-02-18T07:49:27;11.00;99.90
34099;DHT22;20374;49.474;10.944;2023-02-18T07:51:53;11.10;99.90
34099;DHT22;20374;49.474;10.944;2023-02-18T07:54:19;11.10;99.90
34099;DHT22;20374;49.474;10.944;2023-02-18T07:56:45;11.10;99.90
34099;DHT22;20374;49.474;10.944;2023-02-18T07:59:12;11.20;99.90
34099;DHT22;20374;49.474;10.944;2023-02-18T08:01:38;11.20;99.90
34099;DHT22;20374;49.474;10.944;2023-02-18T08:04:04;11.30;99.90
34099;DHT22;20374;49.474;10.944;2023-02-18T08:06:35;11.30;99.90
34099;DHT22;20374;49.474;10.944;2023-02-18T08:09:01;11.30;99.90
34099;DHT22;20374;49.474;10.944;2023-02-18T08:11:27;11.30;99.90
34099;DHT22;20374;49.474;10.944;2023-02-18T08:13:53;11.30;99.90
34099;DHT22;20374;49.474;10.944;2023-02-18T08:16:20;11.40;99.90
34099;DHT22;20374;49.474;10.944;2023-02-18T08:18:48;11.30;99.90
34099;DHT22;20374;49.474;10.944;2023-02-18T08:21:15;11.40;99.90
34099;DHT22;20374;49.474;10.944;2023-02-18T08:23:41;11.50;99.90
34099;DHT22;20374;49.474;10.944;2023-02-18T08:26:08;11.70;99.90
34099;DHT22;20374;49.474;10.944;2023-02-18T08:28:41;11.90;99.90
34099;DHT22;20374;49.474;10.944;2023-02-18T08:31:12;12.40;99.90
34099;DHT22;20374;49.474;10.944;2023-02-18T08:33:40;13.10;99.90
34099;DHT22;20374;49.474;10.944;2023-02-18T08:36:06;13.40;99.90
34099;DHT22;20374;49.474;10.944;2023-02-18T08:38:34;13.50;99.90
34099;DHT22;20374;49.474;10.944;2023-02-18T08:41:05;13.20;99.90
34099;DHT22;20374;49.474;10.944;2023-02-18T08:43:31;12.90;99.90
34099;DHT22;20374;49.474;10.944;2023-02-18T08:45:58;12.70;99.90
34099;DHT22;20374;49.474;10.944;2023-02-18T08:48:25;12.70;99.90
34099;DHT22;20374;49.474;10.944;2023-02-18T08:50:51;12.60;99.90
34099;DHT22;20374;49.474;10.944;2023-02-18T08:53:18;12.50;99.90
34099;DHT22;20374;49.474;10.944;2023-02-18T08:55:44;12.40;99.90
34099;DHT22;20374;49.474;10.944;2023-02-18T08:58:10;12.40;99.90
34099;DHT22;20374;49.474;10.944;2023-02-18T09:00:37;12.40;99.90
34099;DHT22;20374;49.474;10.944;2023-02-18T09:03:05;12.40;99.90
34099;DHT22;20374;49.474;10.944;2023-02-18T09:05:31;12.50;99.90
34099;DHT22;20374;49.474;10.944;2023-02-18T09:07:57;12.50;99.90
34099;DHT22;20374;49.474;10.944;2023-02-18T09:10:23;12.50;99.90
34099;DHT22;20374;49.474;10.944;2023-02-18T09:12:49;12.50;99.90
34099;DHT22;20374;49.474;10.944;2023-02-18T09:15:15;12.50;99.90
34099;DHT22;20374;49.474;10.944;2023-02-18T09:17:40;12.50;99.90
34099;DHT22;20374;49.474;10.944;2023-02-18T09:20:07;12.50;99.90
34099;DHT22;20374;49.474;10.944;2023-02-18T09:22:33;12.40;99.90
34099;DHT22;20374;49.474;10.944;2023-02-18T09:24:58;12.40;99.90
34099;DHT22;20374;49.474;10.944;2023-02-18T09:27:24;12.40;99.90
34099;DHT22;20374;49.474;10.944;2023-02-18T09:29:50;12.40;99.90
34099;DHT22;20374;49.474;10.944;2023-02-18T09:32:17;12.30;99.90
34099;DHT22;20374;49.474;10.944;2023-02-18T09:34:43;12.30;99.90
34099;DHT22;20374;49.474;10.944;2023-02-18T09:37:10;12.30;99.90
34099;DHT22;20374;49.474;10.944;2023-02-18T09:39:36;12.30;99.90
34099;DHT22;20374;49.474;10.944;2023-02-18T09:42:09;12.40;99.90
34099;DHT22;20374;49.474;10.944;2023-02-18T09:44:57;12.40;99.90
34099;DHT22;20374;49.474;10.944;2023-02-18T09:47:32;12.40;99.90
34099;DHT22;20374;49.474;10.944;2023-02-18T09:50:26;12.40;99.90
34099;DHT22;20374;49.474;10.944;2023-02-18T09:52:51;12.50;99.90
34099;DHT22;20374;49.474;10.944;2023-02-18T09:57:53;12.60;99.90
34099;DHT22;20374;49.474;10.944;2023-02-18T10:00:24;12.70;99.90
34099;DHT22;20374;49.474;10.944;2023-02-18T10:05:33;12.70;99.90
34099;DHT22;20374;49.474;10.944;2023-02-18T10:08:06;12.70;99.90
34099;DHT22;20374;49.474;10.944;2023-02-18T10:10:37;12.70;99.90
34099;DHT22;20374;49.474;10.944;2023-02-18T10:13:04;12.60;99.90
34099;DHT22;20374;49.474;10.944;2023-02-18T10:15:32;12.60;99.90
34099;DHT22;20374;49.474;10.944;2023-02-18T10:17:58;12.60;99.90
34099;DHT22;20374;49.474;10.944;2023-02-18T10:20:27;12.50;99.90
34099;DHT22;20374;49.474;10.944;2023-02-18T10:22:57;12.50;99.90
34099;DHT22;20374;49.474;10.944;2023-02-18T10:25:25;12.50;99.90
34099;DHT22;20374;49.474;10.944;2023-02-18T10:27:52;12.50;99.90
34099;DHT22;20374;49.474;10.944;2023-02-18T10:30:24;12.50;99.90
34099;DHT22;20374;49.474;10.944;2023-02-18T10:33:10;12.50;99.90
34099;DHT22;20374;49.474;10.944;2023-02-18T10:36:34;12.50;99.90
34099;DHT22;20374;49.474;10.944;2023-02-18T10:41:42;12.60;99.90
34099;DHT22;20374;49.474;10.944;2023-02-18T10:52:01;12.90;99.90
34099;DHT22;20374;49.474;10.944;2023-02-18T10:55:00;12.90;99.90
34099;DHT22;20374;49.474;10.944;2023-02-18T10:57:26;12.70;99.90
34099;DHT22;20374;49.474;10.944;2023-02-18T11:02:40;12.80;99.90
34099;DHT22;20374;49.474;10.944;2023-02-18T11:05:23;12.90;99.90
34099;DHT22;20374;49.474;10.944;2023-02-18T11:07:51;12.80;99.90
34099;DHT22;20374;49.474;10.944;2023-02-18T11:10:28;12.80;99.90
34099;DHT22;20374;49.474;10.944;2023-02-18T11:13:04;12.90;99.90
34099;DHT22;20374;49.474;10.944;2023-02-18T11:15:30;12.90;99.90
34099;DHT22;20374;49.474;10.944;2023-02-18T11:18:10;13.00;99.90
34099;DHT22;20374;49.474;10.944;2023-02-18T11:20:37;13.00;99.90
34099;DHT22;20374;49.474;10.944;2023-02-18T11:25:35;13.10;99.90
34099;DHT22;20374;49.474;10.944;2023-02-18T11:30:44;13.00;99.90
34099;DHT22;20374;49.474;10.944;2023-02-18T11:33:21;13.00;99.90
34099;DHT22;20374;49.474;10.944;2023-02-18T11:35:57;13.10;99.90
34099;DHT22;20374;49.474;10.944;2023-02-18T11:38:33;13.20;99.90
34099;DHT22;20374;49.474;10.944;2023-02-18T11:41:07;13.30;99.90
34099;DHT22;20374;49.474;10.944;2023-02-18T11:43:34;13.30;99.90
34099;DHT22;20374;49.474;10.944;2023-02-18T11:46:29;13.40;99.90
34099;DHT22;20374;49.474;10.944;2023-02-18T11:48:55;13.40;99.90
34099;DHT22;20374;49.474;10.944;2023-02-18T11:51:33;13.50;99.90
34099;DHT22;20374;49.474;10.944;2023-02-18T11:54:09;13.40;99.90
34099;DHT22;20374;49.474;10.944;2023-02-18T11:56:59;13.50;99.90
34099;DHT22;20374;49.474;10.944;2023-02-18T11:59:27;13.40;99.90
34099;DHT22;20374;49.474;10.944;2023-02-18T12:04:47;13.50;99.90
34099;DHT22;20374;49.474;10.944;2023-02-18T12:09:53;13.50;99.90
34099;DHT22;20374;49.474;10.944;2023-02-18T12:12:27;13.50;99.90
34099;DHT22;20374;49.474;10.944;2023-02-18T12:14:55;13.40;99.90
34099;DHT22;20374;49.474;10.944;2023-02-18T12:23:17;13.10;99.90
34099;DHT22;20374;49.474;10.944;2023-02-18T12:29:16;12.90;99.90
34099;DHT22;20374;49.474;10.944;2023-02-18T12:34:48;12.90;99.90
34099;DHT22;20374;49.474;10.944;2023-02-18T12:40:40;12.90;99.90
34099;DHT22;20374;49.474;10.944;2023-02-18T12:55:14;13.10;99.90
34099;DHT22;20374;49.474;10.944;2023-02-18T13:03:47;13.20;99.90
34099;DHT22;20374;49.474;10.944;2023-02-18T13:09:41;13.20;99.90
34099;DHT22;20374;49.474;10.944;2023-02-18T13:14:51;13.30;99.90
34099;DHT22;20374;49.474;10.944;2023-02-18T13:17:24;13.30;99.90
34099;DHT22;20374;49.474;10.944;2023-02-18T13:19:58;13.20;99.90
34099;DHT22;20374;49.474;10.944;2023-02-18T13:22:28;13.10;99.90
34099;DHT22;20374;49.474;10.944;2023-02-18T13:24:56;13.00;99.90
34099;DHT22;20374;49.474;10.944;2023-02-18T13:32:59;12.80;99.90
34099;DHT22;20374;49.474;10.944;2023-02-18T13:38:25;12.80;99.90
34099;DHT22;20374;49.474;10.944;2023-02-18T13:40:56;12.80;99.90
34099;DHT22;20374;49.474;10.944;2023-02-18T13:43:30;12.80;99.90
34099;DHT22;20374;49.474;10.944;2023-02-18T13:46:12;12.80;99.90
34099;DHT22;20374;49.474;10.944;2023-02-18T13:48:51;12.80;99.90
34099;DHT22;20374;49.474;10.944;2023-02-18T13:51:30;12.80;99.90
34099;DHT22;20374;49.474;10.944;2023-02-18T13:54:21;12.80;99.90
34099;DHT22;20374;49.474;10.944;2023-02-18T13:57:01;12.80;99.90
34099;DHT22;20374;49.474;10.944;2023-02-18T13:59:43;12.80;99.90
34099;DHT22;20374;49.474;10.944;2023-02-18T14:09:48;12.60;99.90
34099;DHT22;20374;49.474;10.944;2023-02-18T14:18:06;12.50;99.90
34099;DHT22;20374;49.474;10.944;2023-02-18T14:33:40;12.40;99.90
34099;DHT22;20374;49.474;10.944;2023-02-18T14:38:53;12.40;99.90
34099;DHT22;20374;49.474;10.944;2023-02-18T14:51:54;12.20;99.90
34099;DHT22;20374;49.474;10.944;2023-02-18T14:54:25;12.20;99.90
34099;DHT22;20374;49.474;10.944;2023-02-18T14:56:59;12.20;99.90
34099;DHT22;20374;49.474;10.944;2023-02-18T14:59:29;12.10;99.90
34099;DHT22;20374;49.474;10.944;2023-02-18T15:01:56;12.00;99.90
34099;DHT22;20374;49.474;10.944;2023-02-18T15:04:24;11.80;99.90
34099;DHT22;20374;49.474;10.944;2023-02-18T15:07:04;11.60;99.90
34099;DHT22;20374;49.474;10.944;2023-02-18T15:09:33;11.40;99.90
34099;DHT22;20374;49.474;10.944;2023-02-18T15:12:03;11.30;99.90
34099;DHT22;20374;49.474;10.944;2023-02-18T15:14:39;11.30;99.90
34099;DHT22;20374;49.474;10.944;2023-02-18T15:17:14;11.20;99.90
34099;DHT22;20374;49.474;10.944;2023-02-18T15:19:48;11.10;99.90
34099;DHT22;20374;49.474;10.944;2023-02-18T15:22:24;11.20;99.90
34099;DHT22;20374;49.474;10.944;2023-02-18T15:24:52;11.20;99.90
34099;DHT22;20374;49.474;10.944;2023-02-18T15:27:24;11.30;99.90
34099;DHT22;20374;49.474;10.944;2023-02-18T15:29:56;11.40;99.90
34099;DHT22;20374;49.474;10.944;2023-02-18T15:32:26;11.30;99.90
34099;DHT22;20374;49.474;10.944;2023-02-18T15:34:55;11.30;99.90
34099;DHT22;20374;49.474;10.944;2023-02-18T15:37:23;11.20;99.90
34099;DHT22;20374;49.474;10.944;2023-02-18T15:39:49;11.20;99.90
34099;DHT22;20374;49.474;10.944;2023-02-18T15:42:29;11.20;99.90
34099;DHT22;20374;49.474;10.944;2023-02-18T15:45:18;11.20;99.90
34099;DHT22;20374;49.474;10.944;2023-02-18T15:47:47;11.10;99.90
34099;DHT22;20374;49.474;10.944;2023-02-18T15:50:20;11.10;99.90
34099;DHT22;20374;49.474;10.944;2023-02-18T15:52:47;11.10;99.90
34099;DHT22;20374;49.474;10.944;2023-02-18T15:55:29;11.10;99.90
34099;DHT22;20374;49.474;10.944;2023-02-18T15:57:56;11.10;99.90
34099;DHT22;20374;49.474;10.944;2023-02-18T16:00:32;11.10;99.90
34099;DHT22;20374;49.474;10.944;2023-02-18T16:05:39;11.20;99.90
34099;DHT22;20374;49.474;10.944;2023-02-18T16:08:15;11.20;99.90
34099;DHT22;20374;49.474;10.944;2023-02-18T16:11:08;11.20;99.90
34099;DHT22;20374;49.474;10.944;2023-02-18T16:13:34;11.20;99.90
34099;DHT22;20374;49.474;10.944;2023-02-18T16:16:02;11.20;99.90
34099;DHT22;20374;49.474;10.944;2023-02-18T16:21:03;11.10;99.90
34099;DHT22;20374;49.474;10.944;2023-02-18T16:23:40;11.10;99.90
34099;DHT22;20374;49.474;10.944;2023-02-18T16:26:11;11.00;99.90
34099;DHT22;20374;49.474;10.944;2023-02-18T16:28:41;11.00;99.90
34099;DHT22;20374;49.474;10.944;2023-02-18T16:31:06;11.00;99.90
34099;DHT22;20374;49.474;10.944;2023-02-18T16:33:32;11.00;99.90
34099;DHT22;20374;49.474;10.944;2023-02-18T16:35:58;11.00;99.90
34099;DHT22;20374;49.474;10.944;2023-02-18T16:38:24;10.90;99.90
34099;DHT22;20374;49.474;10.944;2023-02-18T16:40:52;10.80;99.90
34099;DHT22;20374;49.474;10.944;2023-02-18T16:43:24;10.70;99.90
34099;DHT22;20374;49.474;10.944;2023-02-18T16:45:54;10.60;99.90
34099;DHT22;20374;49.474;10.944;2023-02-18T16:48:37;10.60;99.90
34099;DHT22;20374;49.474;10.944;2023-02-18T16:51:13;10.60;99.90
34099;DHT22;20374;49.474;10.944;2023-02-18T16:53:40;10.60;99.90
34099;DHT22;20374;49.474;10.944;2023-02-18T16:56:13;10.60;99.90
34099;DHT22;20374;49.474;10.944;2023-02-18T16:58:40;10.60;99.90
34099;DHT22;20374;49.474;10.944;2023-02-18T17:01:07;10.60;99.90
34099;DHT22;20374;49.474;10.944;2023-02-18T17:03:39;10.50;99.90
34099;DHT22;20374;49.474;10.944;2023-02-18T17:06:04;10.50;99.90
34099;DHT22;20374;49.474;10.944;2023-02-18T17:08:30;10.50;99.90
34099;DHT22;20374;49.474;10.944;2023-02-18T17:10:57;10.50;99.90
34099;DHT22;20374;49.474;10.944;2023-02-18T17:13:26;10.50;99.90
34099;DHT22;20374;49.474;10.944;2023-02-18T17:15:54;10.60;99.90
34099;DHT22;20374;49.474;10.944;2023-02-18T17:18:21;10.60;99.90
34099;DHT22;20374;49.474;10.944;2023-02-18T17:20:49;10.60;99.90
34099;DHT22;20374;49.474;10.944;2023-02-18T17:23:16;10.50;99.90
34099;DHT22;20374;49.474;10.944;2023-02-18T17:25:43;10.40;99.90
34099;DHT22;20374;49.474;10.944;2023-02-18T17:28:10;10.30;99.90
34099;DHT22;20374;49.474;10.944;2023-02-18T17:30:38;10.30;99.90
34099;DHT22;20374;49.474;10.944;2023-02-18T17:33:05;10.30;99.90
34099;DHT22;20374;49.474;10.944;2023-02-18T17:35:32;10.30;99.90
34099;DHT22;20374;49.474;10.944;2023-02-18T17:37:58;10.30;99.90
34099;DHT22;20374;49.474;10.944;2023-02-18T17:40:26;10.30;99.90
34099;DHT22;20374;49.474;10.944;2023-02-18T17:42:54;10.30;99.90
34099;DHT22;20374;49.474;10.944;2023-02-18T17:45:27;10.30;99.90
34099;DHT22;20374;49.474;10.944;2023-02-18T17:47:55;10.30;99.90
34099;DHT22;20374;49.474;10.944;2023-02-18T17:50:22;10.30;99.90
34099;DHT22;20374;49.474;10.944;2023-02-18T17:52:48;10.30;99.90
34099;DHT22;20374;49.474;10.944;2023-02-18T17:55:22;10.30;99.90
34099;DHT22;20374;49.474;10.944;2023-02-18T17:57:48;10.40;99.90
34099;DHT22;20374;49.474;10.944;2023-02-18T18:00:19;10.40;99.90
34099;DHT22;20374;49.474;10.944;2023-02-18T18:02:45;10.40;99.90
34099;DHT22;20374;49.474;10.944;2023-02-18T18:05:26;10.40;99.90
34099;DHT22;20374;49.474;10.944;2023-02-18T18:07:53;10.40;99.90
34099;DHT22;20374;49.474;10.944;2023-02-18T18:10:22;10.40;99.90
34099;DHT22;20374;49.474;10.944;2023-02-18T18:12:50;10.30;99.90
34099;DHT22;20374;49.474;10.944;2023-02-18T18:17:51;10.20;99.90
34099;DHT22;20374;49.474;10.944;2023-02-18T18:20:17;10.20;99.90
34099;DHT22;20374;49.474;10.944;2023-02-18T18:22:43;10.20;99.90